Pronóstico
Mapa Interactivo
Aviación
Climatología
Hidrometeorología
Agrometeorología
Estaciones Automáticas
Transparencia
OMM WMO
Portada
Institución
Noticias
Imágenes
Tsunami
Historial
Boletines y Alertas
Contactos
Buscar Contenidos
Informe del Tiempo

                                

           VUELOS DE BAJO NIVEL DESDE SUPERFICIE HASTA 24,000 PIES. 

VALIDO DESDE 201200Z...…………………….…………………HASTA 210000Z
SANTO DOMINGO FIR...PORT-AU-PRINCE FIR HISPANIOLA...SCT020 SCT-BKN060 TOP 160. WDLY SCT SHRA.OCNL VIS 3-5SM BR TIL 13Z. OTLK...VFR SHRA...18Z VFR SHRA TSRA.WTRS S OF HISPANIOLA...SCT025 SCT060. LYRS OCNL BKN TOP 160.WDLY SCT SHRA. WND E 20 KTS. OTLK...VFR SHRA WND.WTRS ELSW...SCT025 SCT060. OCNL BKN060 TOP 160. ISOL SHRA.
OTLK...VFR SHRA.

 

 

5,000 FT.

10,000 FT.

18,000 FT.

24,000 FT.

MDSD

0120KT+17ºC

0810KT+11ºC

1410KT-06ºC

1610KT-17ºC

MTPP

0120KT+17ºC

0810KT+11ºC

1410KT-06ºC

1610KT-17ºC

TJSJ

0410KT+17ºC

0910KT+10ºC

0110KT-06ºC

0210KT-17ºC

 

 

 

 

 

 

 

 

 

 

 

 

 

TAF 

 

TAF MDPP 201000Z 2012/2112 00000KT 9999 SCT016 PROB30 2012/2018 8000 -RA BKN015 BECMG 2014/2016 09012KT= 

 

TAF MDST 201000Z 2012/2112 11012KT 9999 SCT020 TEMPO 2012/2014 4000 BR BKN014= 

 

TAF MDPC 201000Z 2012/2112 11010KT 9999 FEW016CB SCT018 SCT080 TEMPO 2012/2018 8000 -RA FEW015CB SCT016 SCT070 PROB40 2018/2100 5000 TSRA FEW012CB BKN015 SCT070=

 

TAF MDBH 201000Z 2012/2112 13010KT 9999 FEW018CB FEW020 PROB30 2018/2100 7000 -TSRA FEW016CB BKN018 BKN070=

 

TAF MDJB 201000Z 2012/2112 00000KT 9999 SCT018 BECMG 2014/2016 09006KT PROB40 2018/2100 7000 -TSRA FEW016CB BKN018 BKN070=

 

TAF MDSD 201000Z 2012/2112 03004KT 9999 SCT016 BECMG 2015/2017 13006KT PROB40 2018/2100 7000 -TSRA FEW016CB BKN018 BKN070=

 

TAF MDLR 201000Z 2012/2112 00000KT 9999 SCT016 BECMG 2013/2015 09012KT PROB40 TEMPO 2018/2023 7000 -TSRA FEW014CB BKN016 BKN070= 

 

TAF MDCY 201000Z 2012/2112 00000KT 9999 SCT018 PROB40 TEMPO 2012/2018 8000 -TSRA FEW016CB SCT018 BKN070 BECMG 2015/2017 06010KT=

 

 

 

KMIA 200854Z 2009/2112 VRB03KT P6SM SCT030 FM201500 14008KT P6SM VCSH SCT030 BKN080 FM201800 11012KT P6SM VCTS SCT025CB BKN060 FM202200 10006KT P6SM SCT030 SCT060=

 

KJFK 200818Z 2008/2112 04009KT P6SM FEW025 OVC080 TEMPO 2009/2012 BKN025 FM201700 08011KT P6SM FEW025 BKN035 FM210200 08007KT P6SM OVC025 FM210900 07007KT P6SM BKN018 OVC025=

 

TJSJ 200520Z 2006/2106 10005KT P6SM VCSH SCT025 BKN050 FM201400 08014KT P6SM FEW030 SCT060  FM201800 07015G20KT P6SM VCSH SCT022 BKN050 FM202300 09011KT P6SM FEW030 SCT060=

 

MUHA 200500Z 2006/2106 VRB03KT 9000 FEW030 BECMG 2014/2016 09006KT TEMPO 2020/2024 VRB10KT 4000 TSRA FEW018CB BKN020 BECMG 2101/2103 VRB03KT=

 

TAF MUGM 2007/2107 35006KT 9999 FEW030 SCT280 QNH2997INS BECMG 2013/2015 12015G20KT 9999 FEW030 SCT100 SCT280 QNH3000INS BECMG 2101/2103 35006KT 9999 FEW030 FEW280 QNH2999INS T25/2009Z T35/2018Z FN00182=

 

TAF TNCC 201000Z 2012/2112 10014G26KT 9999 SCT020 PROB30 TEMPO 2012/2021 BKN015=

 

TAF MKJP 200515Z 2006/2106 35005KT 9999 FEW022 BECMG 2014/2016 14020KT FEW022CB BKN032   BECMG 2101/2103 35005KT=

PREPARADO POR: ADELAIDA PERALTA V. 20 DE AGOSTO DEL 2018-